Skip Navigation LinksHome page > Weather > Current weather Skip Navigation Links

Current Weather

Ithaca Tompkins Regional, Ithaca, N.Y.

For information only: do not use for flight planning or navigation.
Latest weather
Observation time Monday, September 25, 2017 5:56 PM EDT
Local time Monday, September 25, 2017 6:29 PM EDT
Flight conditions Visual Meteorological Conditions
Winds
Wind direction North-Northwest (340°)
Wind speed 9 mph
Visibility 10 mi.
Sky condition
Ceiling unlimited
Sky clear
Temperature 83°F
Dewpoint 71°F
Altimeter 30.06 in.Hg
Derived measurements
Relative humidity 68%
Heat index 88°F
Density altitude 2821 ft.
Sea-level pressure 30.04 in.Hg
Remarks
Automated weather observing station with precipitation discriminator.
METAR KITH 252156Z 34008KT 10SM CLR 28/22 A3006 RMK AO2 SLP172 T02830217

Settings

Location code

InnerDrive.Weather 4.0.6144.1 Release CLR 4.0.30319.36366
Copyright ©2015 Inner Drive Technology. All rights reserved. Portions Copyright ©1986-2015 David Braverman.

Find weather

Site navigation


Skip Navigation Links

Place info

Page info

PayPal - The safer, easier way to pay online!

Return home.

Copyright ©2017 Inner Drive Technology. Purveyors of fine, hand-crafted computer software. Page printed 2017-09-25T22:29:03 UTC.